createdAt,value
2022-12-11T00:02:52.909Z,97519.06
2022-12-11T00:07:54.848Z,97517.97
2022-12-11T00:12:56.762Z,97522.84
2022-12-11T00:17:58.610Z,97526.59
2022-12-11T00:23:00.428Z,97519.06
2022-12-11T00:28:02.294Z,97523.19
2022-12-11T00:33:04.162Z,97528.50
2022-12-11T00:38:06.080Z,97521.72
2022-12-11T00:43:07.957Z,97526.47
2022-12-11T00:48:11.192Z,97520.03
2022-12-11T00:53:13.054Z,97521.25
2022-12-11T00:58:15.717Z,97514.84
2022-12-11T01:03:18.178Z,97517.66
2022-12-11T01:08:20.266Z,97519.06
2022-12-11T01:13:22.108Z,97523.09
2022-12-11T01:18:24.083Z,97531.72
2022-12-11T01:23:25.973Z,97530.75
2022-12-11T01:28:27.832Z,97518.81
2022-12-11T01:33:29.753Z,97520.72
2022-12-11T01:38:31.588Z,97526.63
2022-12-11T01:43:33.434Z,97533.34
2022-12-11T01:48:40.723Z,97536.63
2022-12-11T01:53:50.092Z,97534.56
2022-12-11T01:58:56.536Z,97530.63
2022-12-11T02:03:58.925Z,97525.09
2022-12-11T02:09:01.844Z,97525.72
2022-12-11T02:14:28.424Z,97523.34
2022-12-11T02:20:04.023Z,97527.41
2022-12-11T02:25:44.558Z,97517.94
2022-12-11T02:30:52.319Z,97521.22
2022-12-11T02:35:55.140Z,97512.72
2022-12-11T02:40:59.003Z,97513.34
2022-12-11T02:46:04.209Z,97519.25
2022-12-11T02:51:09.201Z,97512.94
2022-12-11T02:56:21.141Z,97519.25
2022-12-11T03:01:23.097Z,97516.09
2022-12-11T03:06:32.523Z,97518.28
2022-12-11T03:11:34.273Z,97509.63
2022-12-11T03:16:47.358Z,97510.88
2022-12-11T03:21:55.129Z,97518.38
2022-12-11T03:27:11.045Z,97521.66
2022-12-11T03:32:20.060Z,97519.09
2022-12-11T03:37:24.216Z,97513.09
2022-12-11T03:42:27.166Z,97516.53
2022-12-11T03:47:30.220Z,97514.94
2022-12-11T03:52:32.988Z,97524.81
2022-12-11T03:57:37.844Z,97521.66
2022-12-11T04:02:40.761Z,97525.13
2022-12-11T04:07:42.631Z,97521.66
2022-12-11T04:12:44.466Z,97523.03
2022-12-11T04:18:04.721Z,97524.72
2022-12-11T04:23:29.866Z,97525.81
2022-12-11T04:28:31.828Z,97534.41
2022-12-11T04:33:33.680Z,97532.72
2022-12-11T04:38:35.638Z,97523.66
2022-12-11T04:43:37.846Z,97520.09
2022-12-11T04:48:40.055Z,97521.88
2022-12-11T04:53:42.336Z,97519.19
2022-12-11T04:58:45.319Z,97519.19
2022-12-11T05:03:47.739Z,97504.28
2022-12-11T05:08:49.532Z,97502.25
2022-12-11T05:13:52.093Z,97507.16
2022-12-11T05:18:54.531Z,97493.97
2022-12-11T05:23:56.339Z,97494.28
2022-12-11T05:28:58.199Z,97489.34
2022-12-11T05:34:00.079Z,97487.56
2022-12-11T05:39:04.067Z,97479.50
2022-12-11T05:44:05.896Z,97484.13
2022-12-11T05:49:08.194Z,97478.69
2022-12-11T05:54:10.499Z,97486.78
2022-12-11T05:59:12.332Z,97483.63
2022-12-11T06:04:14.173Z,97492.50
2022-12-11T06:09:17.126Z,97483.84
2022-12-11T06:14:18.955Z,97488.78
2022-12-11T06:19:20.793Z,97488.97
2022-12-11T06:24:22.641Z,97495.66
2022-12-11T06:29:24.510Z,97485.19
2022-12-11T06:34:26.549Z,97492.19
2022-12-11T06:39:28.342Z,97497.09
2022-12-11T06:44:30.183Z,97499.56
2022-12-11T06:49:31.997Z,97500.31
2022-12-11T06:54:33.954Z,97503.81
2022-12-11T06:59:35.867Z,97502.06
2022-12-11T07:04:37.660Z,97513.47
2022-12-11T07:09:41.165Z,97517.63
2022-12-11T07:14:43.018Z,97522.94
2022-12-11T07:19:44.896Z,97518.41
2022-12-11T07:24:46.707Z,97525.00
2022-12-11T07:29:48.559Z,97526.31
2022-12-11T07:34:52.126Z,97529.09
2022-12-11T07:39:54.150Z,97529.88
2022-12-11T07:44:56.044Z,97527.50
2022-12-11T07:49:57.866Z,97531.47
2022-12-11T07:54:59.728Z,97535.78
2022-12-11T08:00:01.568Z,97533.19
2022-12-11T08:05:03.524Z,97543.38
2022-12-11T08:10:05.767Z,97536.13
2022-12-11T08:15:08.180Z,97530.53
2022-12-11T08:20:11.290Z,97529.50
2022-12-11T08:25:13.498Z,97532.00
2022-12-11T08:30:15.743Z,97538.91
2022-12-11T08:35:17.689Z,97529.25
2022-12-11T08:40:20.398Z,97522.78
2022-12-11T08:45:22.227Z,97524.00
2022-12-11T08:50:24.021Z,97518.84
2022-12-11T08:55:25.834Z,97520.59
2022-12-11T09:00:27.727Z,97521.41
2022-12-11T09:05:29.855Z,97521.13
2022-12-11T09:10:32.078Z,97527.50
2022-12-11T09:15:34.071Z,97530.09
2022-12-11T09:20:36.170Z,97529.59
2022-12-11T09:25:40.454Z,97533.91
2022-12-11T09:30:42.318Z,97530.25
2022-12-11T09:35:44.248Z,97521.78
2022-12-11T09:40:46.141Z,97525.94
2022-12-11T09:45:50.776Z,97524.28
2022-12-11T09:50:55.210Z,97521.03
2022-12-11T09:56:06.059Z,97524.97
2022-12-11T10:01:26.458Z,97519.66
2022-12-11T10:06:53.064Z,97516.72
2022-12-11T10:12:22.060Z,97504.31
2022-12-11T10:17:34.152Z,97496.84
2022-12-11T10:22:36.559Z,97493.47
2022-12-11T10:27:40.204Z,97492.19
2022-12-11T10:32:53.848Z,97487.38
2022-12-11T10:38:09.793Z,97492.84
2022-12-11T10:43:12.635Z,97492.09
2022-12-11T10:48:14.494Z,97486.56
2022-12-11T10:53:22.469Z,97476.13
2022-12-11T10:58:29.542Z,97469.44
2022-12-11T11:03:33.286Z,97467.84
2022-12-11T11:08:47.897Z,97456.63
2022-12-11T11:13:50.127Z,97449.31
2022-12-11T11:18:56.162Z,97450.13
2022-12-11T11:23:58.336Z,97457.59
2022-12-11T11:29:00.360Z,97448.34
2022-12-11T11:34:06.727Z,97448.34
2022-12-11T11:39:17.713Z,97445.59
2022-12-11T11:44:39.625Z,97428.75
2022-12-11T11:49:49.681Z,97419.97
2022-12-11T11:55:02.218Z,97421.59
2022-12-11T12:00:20.868Z,97414.63
2022-12-11T12:05:31.054Z,97412.50
2022-12-11T12:10:44.270Z,97414.06
2022-12-11T12:15:56.280Z,97413.69
2022-12-11T12:21:17.334Z,97415.75
2022-12-11T12:26:21.868Z,97412.28
2022-12-11T12:31:53.650Z,97414.47
2022-12-11T12:37:00.385Z,97410.31
2022-12-11T12:42:43.332Z,97414.66
2022-12-11T12:47:53.217Z,97400.66
2022-12-11T12:52:56.922Z,97407.44
2022-12-11T12:58:05.227Z,97397.34
2022-12-11T13:03:20.949Z,97396.09
2022-12-11T13:08:28.928Z,97383.22
2022-12-11T13:13:39.296Z,97384.38
2022-12-11T13:18:42.310Z,97381.66
2022-12-11T13:23:44.141Z,97377.63
2022-12-11T13:28:49.321Z,97379.81
2022-12-11T13:33:56.900Z,97379.00
2022-12-11T13:39:06.879Z,97385.69
2022-12-11T13:44:18.534Z,97394.47
2022-12-11T13:49:34.540Z,97395.84
2022-12-11T13:54:36.609Z,97399.47
2022-12-11T13:59:43.019Z,97396.47
2022-12-11T14:04:46.452Z,97397.00
2022-12-11T14:09:48.347Z,97403.53
2022-12-11T14:14:57.120Z,97397.44
2022-12-11T14:20:01.953Z,97390.19
2022-12-11T14:25:21.871Z,97389.25
2022-12-11T14:30:29.872Z,97393.19
2022-12-11T14:35:38.863Z,97398.25
2022-12-11T14:40:44.464Z,97402.59
2022-12-11T14:45:49.926Z,97404.34
2022-12-11T14:50:55.319Z,97416.72
2022-12-11T14:56:01.471Z,97405.78
2022-12-11T15:01:06.461Z,97407.63
2022-12-11T15:06:29.492Z,97412.47
2022-12-11T15:11:32.872Z,97420.41
2022-12-11T15:16:40.963Z,97422.78
2022-12-11T15:21:42.800Z,97421.78
2022-12-11T15:26:48.016Z,97421.28
2022-12-11T15:32:08.710Z,97415.56
2022-12-11T15:37:25.932Z,97413.16
2022-12-11T15:42:39.890Z,97417.78
2022-12-11T15:47:43.363Z,97414.34
2022-12-11T15:52:46.422Z,97412.00
2022-12-11T15:58:01.330Z,97404.94
2022-12-11T16:03:03.194Z,97419.81
2022-12-11T16:08:05.394Z,97429.53
2022-12-11T16:13:07.224Z,97430.00
2022-12-11T16:18:12.164Z,97433.66
2022-12-11T16:23:16.446Z,97422.63
2022-12-11T16:28:21.231Z,97420.28
2022-12-11T16:33:23.080Z,97431.44
2022-12-11T16:38:25.177Z,97430.50
2022-12-11T16:43:27.300Z,97420.88
2022-12-11T16:48:29.190Z,97420.88
2022-12-11T16:53:31.117Z,97425.53
2022-12-11T16:58:33.488Z,97424.22
2022-12-11T17:03:35.293Z,97422.34
2022-12-11T17:08:37.672Z,97424.66
2022-12-11T17:13:39.523Z,97420.50
2022-12-11T17:18:42.685Z,97422.09
2022-12-11T17:23:45.374Z,97432.00
2022-12-11T17:28:47.726Z,97429.72
2022-12-11T17:33:50.067Z,97433.38
2022-12-11T17:38:52.043Z,97435.28
2022-12-11T17:43:55.915Z,97421.59
2022-12-11T17:49:00.216Z,97427.91
2022-12-11T17:54:02.314Z,97428.56
2022-12-11T17:59:04.914Z,97427.53
2022-12-11T18:04:07.104Z,97432.06
2022-12-11T18:09:11.523Z,97426.97
2022-12-11T18:14:17.213Z,97435.44
2022-12-11T18:19:20.336Z,97429.56
2022-12-11T18:24:23.001Z,97433.94
2022-12-11T18:29:25.898Z,97433.94
2022-12-11T18:34:27.894Z,97439.03
2022-12-11T18:39:29.789Z,97445.69
2022-12-11T18:44:31.667Z,97434.16
2022-12-11T18:49:33.450Z,97437.22
2022-12-11T18:54:35.575Z,97432.81
2022-12-11T18:59:37.857Z,97426.66
2022-12-11T19:04:39.687Z,97428.69
2022-12-11T19:09:47.526Z,97425.81
2022-12-11T19:14:49.568Z,97422.72
2022-12-11T19:19:51.398Z,97422.53
2022-12-11T19:24:53.199Z,97427.41
2022-12-11T19:29:55.020Z,97416.91
2022-12-11T19:34:56.829Z,97428.13
2022-12-11T19:39:58.661Z,97412.78
2022-12-11T19:45:00.478Z,97415.00
2022-12-11T19:50:02.410Z,97424.91
2022-12-11T19:55:06.285Z,97416.28
2022-12-11T20:00:08.614Z,97415.72
2022-12-11T20:05:14.634Z,97412.19
2022-12-11T20:10:16.887Z,97418.50
2022-12-11T20:15:20.726Z,97415.19
2022-12-11T20:20:24.400Z,97413.63
2022-12-11T20:25:27.840Z,97410.63
2022-12-11T20:30:30.015Z,97417.78
2022-12-11T20:35:32.289Z,97412.47
2022-12-11T20:40:34.513Z,97415.03
2022-12-11T20:45:36.504Z,97419.00
2022-12-11T20:50:38.965Z,97418.78
2022-12-11T20:55:42.614Z,97421.44
2022-12-11T21:00:45.198Z,97419.22
2022-12-11T21:05:47.427Z,97413.38
2022-12-11T21:10:49.513Z,97410.09
2022-12-11T21:15:54.150Z,97405.38
2022-12-11T21:20:56.946Z,97409.09
2022-12-11T21:25:59.898Z,97410.63
2022-12-11T21:31:03.804Z,97410.13
2022-12-11T21:36:07.062Z,97399.22
2022-12-11T21:41:24.157Z,97403.66
2022-12-11T21:46:29.144Z,97398.25
2022-12-11T21:51:37.919Z,97385.88
2022-12-11T21:56:42.662Z,97387.72
2022-12-11T22:01:46.255Z,97392.53
2022-12-11T22:06:48.230Z,97389.53
2022-12-11T22:11:55.051Z,97389.69
2022-12-11T22:16:59.946Z,97389.63
2022-12-11T22:22:01.932Z,97392.81
2022-12-11T22:27:04.326Z,97388.09
2022-12-11T22:32:06.137Z,97386.38
2022-12-11T22:37:07.977Z,97385.78
2022-12-11T22:42:09.779Z,97389.16
2022-12-11T22:47:11.711Z,97387.66
2022-12-11T22:52:13.633Z,97385.28
2022-12-11T22:57:15.498Z,97385.88
2022-12-11T23:02:17.380Z,97386.66
2022-12-11T23:07:19.228Z,97391.53
2022-12-11T23:12:21.096Z,97391.53
2022-12-11T23:17:23.242Z,97392.47
2022-12-11T23:22:25.035Z,97389.81
2022-12-11T23:27:26.867Z,97390.81
2022-12-11T23:32:28.670Z,97392.97
2022-12-11T23:37:30.463Z,97399.06
2022-12-11T23:42:33.821Z,97395.00
2022-12-11T23:47:35.604Z,97403.66
2022-12-11T23:52:37.404Z,97398.59
2022-12-11T23:57:39.376Z,97402.31
